sensor_id;sensor_type;location;lat;lon;timestamp;P1;durP1;ratioP1;P2;durP2;ratioP2
8694;SDS011;65580;49.446;6.854;2023-05-08T00:03:55;5.13;;;1.98;;
8694;SDS011;65580;49.446;6.854;2023-05-08T00:08:00;4.68;;;1.70;;
8694;SDS011;65580;49.446;6.854;2023-05-08T00:12:03;2.53;;;1.60;;
8694;SDS011;65580;49.446;6.854;2023-05-08T00:16:08;2.30;;;1.73;;
8694;SDS011;65580;49.446;6.854;2023-05-08T00:20:14;2.40;;;1.88;;
8694;SDS011;65580;49.446;6.854;2023-05-08T00:24:18;3.28;;;1.60;;
8694;SDS011;65580;49.446;6.854;2023-05-08T00:32:28;3.08;;;1.80;;
8694;SDS011;65580;49.446;6.854;2023-05-08T00:36:32;4.85;;;2.10;;
8694;SDS011;65580;49.446;6.854;2023-05-08T00:40:37;3.40;;;1.83;;
8694;SDS011;65580;49.446;6.854;2023-05-08T00:44:41;2.22;;;1.70;;
8694;SDS011;65580;49.446;6.854;2023-05-08T00:48:46;2.88;;;1.60;;
8694;SDS011;65580;49.446;6.854;2023-05-08T00:52:50;3.72;;;1.77;;
8694;SDS011;65580;49.446;6.854;2023-05-08T00:56:54;5.22;;;2.03;;
8694;SDS011;65580;49.446;6.854;2023-05-08T01:00:57;3.75;;;1.90;;
8694;SDS011;65580;49.446;6.854;2023-05-08T01:05:08;6.18;;;2.40;;
8694;SDS011;65580;49.446;6.854;2023-05-08T01:09:12;2.13;;;1.70;;
8694;SDS011;65580;49.446;6.854;2023-05-08T01:13:27;4.25;;;2.08;;
8694;SDS011;65580;49.446;6.854;2023-05-08T01:17:37;5.50;;;1.80;;
8694;SDS011;65580;49.446;6.854;2023-05-08T01:35:15;2.88;;;1.90;;
8694;SDS011;65580;49.446;6.854;2023-05-08T01:39:28;4.40;;;2.70;;
8694;SDS011;65580;49.446;6.854;2023-05-08T01:43:41;3.65;;;2.40;;
8694;SDS011;65580;49.446;6.854;2023-05-08T01:47:50;6.63;;;2.15;;
8694;SDS011;65580;49.446;6.854;2023-05-08T01:51:58;4.30;;;1.60;;
8694;SDS011;65580;49.446;6.854;2023-05-08T01:56:07;2.97;;;2.10;;
8694;SDS011;65580;49.446;6.854;2023-05-08T02:00:14;3.72;;;2.38;;
8694;SDS011;65580;49.446;6.854;2023-05-08T02:04:19;2.67;;;1.58;;
8694;SDS011;65580;49.446;6.854;2023-05-08T02:08:27;1.70;;;1.42;;
8694;SDS011;65580;49.446;6.854;2023-05-08T02:12:32;3.10;;;1.80;;
8694;SDS011;65580;49.446;6.854;2023-05-08T02:16:36;3.33;;;1.80;;
8694;SDS011;65580;49.446;6.854;2023-05-08T02:20:42;3.53;;;1.90;;
8694;SDS011;65580;49.446;6.854;2023-05-08T02:24:49;3.88;;;1.85;;
8694;SDS011;65580;49.446;6.854;2023-05-08T02:29:01;3.28;;;2.10;;
8694;SDS011;65580;49.446;6.854;2023-05-08T02:37:09;2.10;;;1.83;;
8694;SDS011;65580;49.446;6.854;2023-05-08T02:41:22;7.38;;;2.20;;
8694;SDS011;65580;49.446;6.854;2023-05-08T02:45:31;2.63;;;1.80;;
8694;SDS011;65580;49.446;6.854;2023-05-08T02:49:42;2.78;;;1.70;;
8694;SDS011;65580;49.446;6.854;2023-05-08T02:53:50;3.30;;;2.00;;
8694;SDS011;65580;49.446;6.854;2023-05-08T03:02:38;2.88;;;2.28;;
8694;SDS011;65580;49.446;6.854;2023-05-08T03:10:48;2.85;;;1.92;;
8694;SDS011;65580;49.446;6.854;2023-05-08T03:14:55;3.97;;;2.40;;
8694;SDS011;65580;49.446;6.854;2023-05-08T03:19:04;3.05;;;2.35;;
8694;SDS011;65580;49.446;6.854;2023-05-08T03:23:10;4.43;;;2.00;;
8694;SDS011;65580;49.446;6.854;2023-05-08T03:27:15;3.67;;;1.90;;
8694;SDS011;65580;49.446;6.854;2023-05-08T03:31:19;5.03;;;2.90;;
8694;SDS011;65580;49.446;6.854;2023-05-08T03:35:32;2.97;;;2.30;;
8694;SDS011;65580;49.446;6.854;2023-05-08T03:39:37;3.20;;;2.00;;
8694;SDS011;65580;49.446;6.854;2023-05-08T03:43:41;3.03;;;2.10;;
8694;SDS011;65580;49.446;6.854;2023-05-08T03:47:45;5.47;;;3.10;;
8694;SDS011;65580;49.446;6.854;2023-05-08T03:51:51;4.55;;;2.60;;
8694;SDS011;65580;49.446;6.854;2023-05-08T03:55:55;3.78;;;2.20;;
8694;SDS011;65580;49.446;6.854;2023-05-08T04:00:00;2.83;;;2.10;;
8694;SDS011;65580;49.446;6.854;2023-05-08T04:04:08;2.72;;;2.03;;
8694;SDS011;65580;49.446;6.854;2023-05-08T04:08:16;5.63;;;2.45;;
8694;SDS011;65580;49.446;6.854;2023-05-08T04:12:25;4.88;;;2.70;;
8694;SDS011;65580;49.446;6.854;2023-05-08T04:16:35;3.65;;;2.53;;
8694;SDS011;65580;49.446;6.854;2023-05-08T04:20:40;3.28;;;2.30;;
8694;SDS011;65580;49.446;6.854;2023-05-08T04:24:58;6.88;;;2.80;;
8694;SDS011;65580;49.446;6.854;2023-05-08T04:29:07;5.93;;;2.70;;
8694;SDS011;65580;49.446;6.854;2023-05-08T04:33:10;7.35;;;3.25;;
8694;SDS011;65580;49.446;6.854;2023-05-08T04:37:24;5.80;;;2.92;;
8694;SDS011;65580;49.446;6.854;2023-05-08T04:41:29;10.07;;;4.50;;
8694;SDS011;65580;49.446;6.854;2023-05-08T04:45:33;8.10;;;4.80;;
8694;SDS011;65580;49.446;6.854;2023-05-08T04:49:36;6.47;;;3.90;;
8694;SDS011;65580;49.446;6.854;2023-05-08T04:53:40;5.75;;;3.40;;
8694;SDS011;65580;49.446;6.854;2023-05-08T04:57:45;4.82;;;2.88;;
8694;SDS011;65580;49.446;6.854;2023-05-08T05:01:49;4.93;;;3.45;;
8694;SDS011;65580;49.446;6.854;2023-05-08T05:05:56;5.88;;;3.47;;
8694;SDS011;65580;49.446;6.854;2023-05-08T05:09:59;14.15;;;7.68;;
8694;SDS011;65580;49.446;6.854;2023-05-08T05:14:13;17.60;;;7.18;;
8694;SDS011;65580;49.446;6.854;2023-05-08T05:18:16;16.77;;;7.72;;
8694;SDS011;65580;49.446;6.854;2023-05-08T05:30:58;19.65;;;9.50;;
8694;SDS011;65580;49.446;6.854;2023-05-08T05:35:02;19.98;;;11.02;;
8694;SDS011;65580;49.446;6.854;2023-05-08T05:39:05;17.83;;;10.30;;
8694;SDS011;65580;49.446;6.854;2023-05-08T05:43:08;20.13;;;11.40;;
8694;SDS011;65580;49.446;6.854;2023-05-08T05:47:13;12.52;;;7.80;;
8694;SDS011;65580;49.446;6.854;2023-05-08T05:51:17;19.50;;;9.45;;
8694;SDS011;65580;49.446;6.854;2023-05-08T05:55:20;15.23;;;7.38;;
8694;SDS011;65580;49.446;6.854;2023-05-08T05:59:23;10.85;;;6.60;;
8694;SDS011;65580;49.446;6.854;2023-05-08T06:03:28;14.52;;;8.05;;
8694;SDS011;65580;49.446;6.854;2023-05-08T06:07:31;10.95;;;7.63;;
8694;SDS011;65580;49.446;6.854;2023-05-08T06:15:37;7.47;;;4.63;;
8694;SDS011;65580;49.446;6.854;2023-05-08T06:23:50;6.68;;;3.88;;
8694;SDS011;65580;49.446;6.854;2023-05-08T06:27:55;8.20;;;3.78;;
8694;SDS011;65580;49.446;6.854;2023-05-08T06:36:05;8.63;;;5.50;;
8694;SDS011;65580;49.446;6.854;2023-05-08T06:40:09;6.47;;;4.38;;
8694;SDS011;65580;49.446;6.854;2023-05-08T06:44:15;7.72;;;4.78;;
8694;SDS011;65580;49.446;6.854;2023-05-08T06:52:23;7.05;;;4.60;;
8694;SDS011;65580;49.446;6.854;2023-05-08T06:56:27;7.90;;;4.30;;
8694;SDS011;65580;49.446;6.854;2023-05-08T07:00:30;6.50;;;4.15;;
8694;SDS011;65580;49.446;6.854;2023-05-08T07:04:34;4.45;;;3.47;;
8694;SDS011;65580;49.446;6.854;2023-05-08T07:08:42;5.53;;;3.22;;
8694;SDS011;65580;49.446;6.854;2023-05-08T07:12:45;7.82;;;3.58;;
8694;SDS011;65580;49.446;6.854;2023-05-08T07:16:49;5.00;;;2.95;;
8694;SDS011;65580;49.446;6.854;2023-05-08T07:24:56;6.00;;;3.40;;
8694;SDS011;65580;49.446;6.854;2023-05-08T07:28:59;6.53;;;3.80;;
8694;SDS011;65580;49.446;6.854;2023-05-08T07:33:03;4.60;;;3.00;;
8694;SDS011;65580;49.446;6.854;2023-05-08T07:37:06;8.30;;;3.50;;
8694;SDS011;65580;49.446;6.854;2023-05-08T07:41:10;5.07;;;3.30;;
8694;SDS011;65580;49.446;6.854;2023-05-08T07:45:14;4.50;;;2.92;;
8694;SDS011;65580;49.446;6.854;2023-05-08T07:49:17;5.22;;;2.83;;
8694;SDS011;65580;49.446;6.854;2023-05-08T07:53:20;6.07;;;3.13;;
8694;SDS011;65580;49.446;6.854;2023-05-08T07:57:25;5.60;;;2.80;;
8694;SDS011;65580;49.446;6.854;2023-05-08T08:01:44;4.80;;;2.88;;
8694;SDS011;65580;49.446;6.854;2023-05-08T08:05:48;5.78;;;2.95;;
8694;SDS011;65580;49.446;6.854;2023-05-08T08:13:55;5.70;;;3.00;;
8694;SDS011;65580;49.446;6.854;2023-05-08T08:17:59;4.20;;;2.55;;
8694;SDS011;65580;49.446;6.854;2023-05-08T08:22:02;4.55;;;2.50;;
8694;SDS011;65580;49.446;6.854;2023-05-08T08:26:05;3.80;;;2.55;;
8694;SDS011;65580;49.446;6.854;2023-05-08T08:30:10;2.72;;;2.40;;
8694;SDS011;65580;49.446;6.854;2023-05-08T08:34:18;4.60;;;2.67;;
8694;SDS011;65580;49.446;6.854;2023-05-08T08:38:22;3.70;;;2.60;;
8694;SDS011;65580;49.446;6.854;2023-05-08T08:42:25;6.65;;;3.00;;
8694;SDS011;65580;49.446;6.854;2023-05-08T08:46:30;5.18;;;2.53;;
8694;SDS011;65580;49.446;6.854;2023-05-08T08:50:34;6.45;;;2.72;;
8694;SDS011;65580;49.446;6.854;2023-05-08T08:54:39;5.10;;;2.65;;
8694;SDS011;65580;49.446;6.854;2023-05-08T08:58:43;9.50;;;3.10;;
8694;SDS011;65580;49.446;6.854;2023-05-08T09:02:52;4.70;;;2.65;;
8694;SDS011;65580;49.446;6.854;2023-05-08T09:06:56;4.22;;;2.20;;
8694;SDS011;65580;49.446;6.854;2023-05-08T09:10:59;6.38;;;2.60;;
8694;SDS011;65580;49.446;6.854;2023-05-08T09:15:03;3.17;;;2.10;;
8694;SDS011;65580;49.446;6.854;2023-05-08T09:19:09;4.32;;;2.25;;
8694;SDS011;65580;49.446;6.854;2023-05-08T09:23:15;6.20;;;2.17;;
8694;SDS011;65580;49.446;6.854;2023-05-08T09:27:19;3.08;;;1.88;;
8694;SDS011;65580;49.446;6.854;2023-05-08T09:31:24;4.25;;;1.95;;
8694;SDS011;65580;49.446;6.854;2023-05-08T09:35:38;5.22;;;2.33;;
8694;SDS011;65580;49.446;6.854;2023-05-08T09:39:41;3.42;;;2.10;;
8694;SDS011;65580;49.446;6.854;2023-05-08T09:44:01;2.97;;;2.20;;
8694;SDS011;65580;49.446;6.854;2023-05-08T09:48:04;3.92;;;2.47;;
8694;SDS011;65580;49.446;6.854;2023-05-08T09:52:09;5.47;;;2.63;;
8694;SDS011;65580;49.446;6.854;2023-05-08T09:56:27;5.97;;;2.70;;
8694;SDS011;65580;49.446;6.854;2023-05-08T10:04:40;4.28;;;2.42;;
8694;SDS011;65580;49.446;6.854;2023-05-08T10:08:45;4.18;;;2.60;;
8694;SDS011;65580;49.446;6.854;2023-05-08T10:12:48;3.30;;;2.67;;
8694;SDS011;65580;49.446;6.854;2023-05-08T10:16:53;4.95;;;2.67;;
8694;SDS011;65580;49.446;6.854;2023-05-08T10:20:57;5.78;;;3.53;;
8694;SDS011;65580;49.446;6.854;2023-05-08T10:25:04;4.78;;;3.38;;
8694;SDS011;65580;49.446;6.854;2023-05-08T10:29:12;4.95;;;3.40;;
8694;SDS011;65580;49.446;6.854;2023-05-08T10:33:20;7.35;;;2.97;;
8694;SDS011;65580;49.446;6.854;2023-05-08T10:37:30;4.85;;;3.75;;
8694;SDS011;65580;49.446;6.854;2023-05-08T10:41:37;7.70;;;4.20;;
8694;SDS011;65580;49.446;6.854;2023-05-08T10:45:40;6.40;;;3.85;;
8694;SDS011;65580;49.446;6.854;2023-05-08T10:49:48;6.78;;;3.83;;
8694;SDS011;65580;49.446;6.854;2023-05-08T10:53:58;6.07;;;3.80;;
8694;SDS011;65580;49.446;6.854;2023-05-08T10:58:15;4.75;;;3.50;;
8694;SDS011;65580;49.446;6.854;2023-05-08T11:02:33;5.80;;;3.90;;
8694;SDS011;65580;49.446;6.854;2023-05-08T11:06:42;6.97;;;4.40;;
8694;SDS011;65580;49.446;6.854;2023-05-08T11:10:50;5.93;;;3.92;;
8694;SDS011;65580;49.446;6.854;2023-05-08T11:14:57;4.38;;;3.13;;
8694;SDS011;65580;49.446;6.854;2023-05-08T11:19:16;4.10;;;2.65;;
8694;SDS011;65580;49.446;6.854;2023-05-08T11:23:20;5.68;;;3.03;;
8694;SDS011;65580;49.446;6.854;2023-05-08T11:27:30;4.10;;;2.90;;
8694;SDS011;65580;49.446;6.854;2023-05-08T11:31:49;4.78;;;2.80;;
8694;SDS011;65580;49.446;6.854;2023-05-08T11:35:53;3.28;;;2.53;;
8694;SDS011;65580;49.446;6.854;2023-05-08T11:39:57;5.35;;;2.40;;
8694;SDS011;65580;49.446;6.854;2023-05-08T11:44:39;2.97;;;2.10;;
8694;SDS011;65580;49.446;6.854;2023-05-08T11:48:43;3.20;;;2.78;;
8694;SDS011;65580;49.446;6.854;2023-05-08T11:52:54;2.95;;;2.50;;
8694;SDS011;65580;49.446;6.854;2023-05-08T11:56:57;2.55;;;2.22;;
8694;SDS011;65580;49.446;6.854;2023-05-08T12:01:02;3.47;;;2.30;;
8694;SDS011;65580;49.446;6.854;2023-05-08T12:05:07;3.85;;;2.17;;
8694;SDS011;65580;49.446;6.854;2023-05-08T12:09:12;2.92;;;2.17;;
8694;SDS011;65580;49.446;6.854;2023-05-08T12:13:16;2.78;;;2.47;;
8694;SDS011;65580;49.446;6.854;2023-05-08T12:17:20;3.63;;;2.42;;
8694;SDS011;65580;49.446;6.854;2023-05-08T12:21:25;2.78;;;2.40;;
8694;SDS011;65580;49.446;6.854;2023-05-08T12:25:28;3.13;;;1.98;;
8694;SDS011;65580;49.446;6.854;2023-05-08T12:29:34;2.15;;;1.80;;
8694;SDS011;65580;49.446;6.854;2023-05-08T12:33:38;2.30;;;1.90;;
8694;SDS011;65580;49.446;6.854;2023-05-08T12:37:44;1.95;;;1.80;;
8694;SDS011;65580;49.446;6.854;2023-05-08T12:41:47;5.22;;;2.20;;
8694;SDS011;65580;49.446;6.854;2023-05-08T12:45:56;3.10;;;1.90;;
8694;SDS011;65580;49.446;6.854;2023-05-08T12:49:59;2.63;;;1.90;;
8694;SDS011;65580;49.446;6.854;2023-05-08T12:54:04;3.30;;;2.22;;
8694;SDS011;65580;49.446;6.854;2023-05-08T12:58:07;3.35;;;2.10;;
8694;SDS011;65580;49.446;6.854;2023-05-08T13:02:17;3.08;;;2.30;;
8694;SDS011;65580;49.446;6.854;2023-05-08T13:06:22;3.78;;;2.53;;
8694;SDS011;65580;49.446;6.854;2023-05-08T13:10:26;3.17;;;2.40;;
8694;SDS011;65580;49.446;6.854;2023-05-08T13:14:44;3.03;;;2.15;;
8694;SDS011;65580;49.446;6.854;2023-05-08T13:18:50;2.28;;;2.00;;
8694;SDS011;65580;49.446;6.854;2023-05-08T13:22:53;2.60;;;2.10;;
8694;SDS011;65580;49.446;6.854;2023-05-08T13:26:57;4.03;;;2.40;;
8694;SDS011;65580;49.446;6.854;2023-05-08T13:31:00;5.32;;;2.90;;
8694;SDS011;65580;49.446;6.854;2023-05-08T13:35:04;3.50;;;2.55;;
8694;SDS011;65580;49.446;6.854;2023-05-08T13:39:07;5.43;;;3.25;;
8694;SDS011;65580;49.446;6.854;2023-05-08T13:43:12;4.13;;;2.88;;
8694;SDS011;65580;49.446;6.854;2023-05-08T13:47:15;4.07;;;3.20;;
8694;SDS011;65580;49.446;6.854;2023-05-08T13:51:18;5.25;;;2.80;;
8694;SDS011;65580;49.446;6.854;2023-05-08T13:55:21;11.93;;;3.65;;
8694;SDS011;65580;49.446;6.854;2023-05-08T14:03:28;19.38;;;7.50;;
8694;SDS011;65580;49.446;6.854;2023-05-08T14:07:31;14.10;;;4.85;;
8694;SDS011;65580;49.446;6.854;2023-05-08T14:11:34;18.13;;;5.18;;
8694;SDS011;65580;49.446;6.854;2023-05-08T14:15:38;8.60;;;4.22;;
8694;SDS011;65580;49.446;6.854;2023-05-08T14:19:42;7.93;;;3.65;;
8694;SDS011;65580;49.446;6.854;2023-05-08T14:23:46;8.20;;;3.90;;
8694;SDS011;65580;49.446;6.854;2023-05-08T14:27:48;12.13;;;5.47;;
8694;SDS011;65580;49.446;6.854;2023-05-08T14:32:05;10.50;;;5.45;;
8694;SDS011;65580;49.446;6.854;2023-05-08T14:36:09;5.70;;;3.53;;
8694;SDS011;65580;49.446;6.854;2023-05-08T14:40:20;6.43;;;3.90;;
8694;SDS011;65580;49.446;6.854;2023-05-08T14:44:24;4.63;;;3.00;;
8694;SDS011;65580;49.446;6.854;2023-05-08T14:48:29;4.63;;;2.80;;
8694;SDS011;65580;49.446;6.854;2023-05-08T14:52:31;5.68;;;3.60;;
8694;SDS011;65580;49.446;6.854;2023-05-08T14:56:34;7.00;;;3.40;;
8694;SDS011;65580;49.446;6.854;2023-05-08T15:00:48;6.68;;;3.33;;
8694;SDS011;65580;49.446;6.854;2023-05-08T15:04:52;5.70;;;2.95;;
8694;SDS011;65580;49.446;6.854;2023-05-08T15:08:55;8.00;;;3.50;;
8694;SDS011;65580;49.446;6.854;2023-05-08T15:12:58;5.05;;;3.42;;
8694;SDS011;65580;49.446;6.854;2023-05-08T15:17:15;6.25;;;3.42;;
8694;SDS011;65580;49.446;6.854;2023-05-08T15:21:19;3.92;;;2.78;;
8694;SDS011;65580;49.446;6.854;2023-05-08T15:25:26;6.25;;;3.75;;
8694;SDS011;65580;49.446;6.854;2023-05-08T15:29:30;5.35;;;3.17;;
8694;SDS011;65580;49.446;6.854;2023-05-08T15:33:33;7.55;;;3.50;;
8694;SDS011;65580;49.446;6.854;2023-05-08T15:37:37;4.28;;;3.05;;
8694;SDS011;65580;49.446;6.854;2023-05-08T15:41:41;6.40;;;3.47;;
8694;SDS011;65580;49.446;6.854;2023-05-08T15:45:43;6.00;;;3.85;;
8694;SDS011;65580;49.446;6.854;2023-05-08T15:49:51;3.90;;;2.45;;
8694;SDS011;65580;49.446;6.854;2023-05-08T15:53:56;5.10;;;2.92;;
8694;SDS011;65580;49.446;6.854;2023-05-08T15:57:59;5.85;;;2.45;;
8694;SDS011;65580;49.446;6.854;2023-05-08T16:02:07;6.20;;;4.00;;
8694;SDS011;65580;49.446;6.854;2023-05-08T16:06:18;5.00;;;3.35;;
8694;SDS011;65580;49.446;6.854;2023-05-08T16:10:22;6.15;;;4.28;;
8694;SDS011;65580;49.446;6.854;2023-05-08T16:14:25;7.38;;;5.28;;
8694;SDS011;65580;49.446;6.854;2023-05-08T16:18:28;6.68;;;4.38;;
8694;SDS011;65580;49.446;6.854;2023-05-08T16:22:31;8.30;;;3.78;;
8694;SDS011;65580;49.446;6.854;2023-05-08T16:26:36;8.02;;;4.38;;
8694;SDS011;65580;49.446;6.854;2023-05-08T16:30:39;7.80;;;3.63;;
8694;SDS011;65580;49.446;6.854;2023-05-08T16:34:42;5.63;;;4.10;;
8694;SDS011;65580;49.446;6.854;2023-05-08T16:42:56;9.15;;;4.97;;
8694;SDS011;65580;49.446;6.854;2023-05-08T16:46:59;9.52;;;6.15;;
8694;SDS011;65580;49.446;6.854;2023-05-08T16:51:08;7.80;;;5.18;;
8694;SDS011;65580;49.446;6.854;2023-05-08T16:55:11;10.38;;;5.60;;
8694;SDS011;65580;49.446;6.854;2023-05-08T16:59:16;11.60;;;6.70;;
8694;SDS011;65580;49.446;6.854;2023-05-08T17:03:19;9.32;;;6.70;;
8694;SDS011;65580;49.446;6.854;2023-05-08T17:07:23;10.38;;;5.40;;
8694;SDS011;65580;49.446;6.854;2023-05-08T17:11:26;14.43;;;6.15;;
8694;SDS011;65580;49.446;6.854;2023-05-08T17:15:30;17.48;;;9.05;;
8694;SDS011;65580;49.446;6.854;2023-05-08T17:19:33;16.30;;;8.00;;
8694;SDS011;65580;49.446;6.854;2023-05-08T17:23:36;9.65;;;6.18;;
8694;SDS011;65580;49.446;6.854;2023-05-08T17:27:39;17.15;;;6.50;;
8694;SDS011;65580;49.446;6.854;2023-05-08T17:31:44;13.32;;;7.75;;
8694;SDS011;65580;49.446;6.854;2023-05-08T17:35:48;21.23;;;9.90;;
8694;SDS011;65580;49.446;6.854;2023-05-08T17:39:51;16.70;;;9.82;;
8694;SDS011;65580;49.446;6.854;2023-05-08T17:43:54;15.82;;;9.20;;
8694;SDS011;65580;49.446;6.854;2023-05-08T17:47:58;10.38;;;7.45;;
8694;SDS011;65580;49.446;6.854;2023-05-08T17:52:05;17.77;;;9.65;;
8694;SDS011;65580;49.446;6.854;2023-05-08T17:56:08;23.42;;;12.70;;
8694;SDS011;65580;49.446;6.854;2023-05-08T18:00:11;19.23;;;11.02;;
8694;SDS011;65580;49.446;6.854;2023-05-08T18:04:18;16.25;;;9.00;;
8694;SDS011;65580;49.446;6.854;2023-05-08T18:08:21;11.25;;;7.18;;
8694;SDS011;65580;49.446;6.854;2023-05-08T18:12:24;16.88;;;9.88;;
8694;SDS011;65580;49.446;6.854;2023-05-08T18:16:27;27.23;;;12.48;;
8694;SDS011;65580;49.446;6.854;2023-05-08T18:20:31;18.33;;;9.50;;
8694;SDS011;65580;49.446;6.854;2023-05-08T18:24:34;23.08;;;11.48;;
8694;SDS011;65580;49.446;6.854;2023-05-08T18:28:37;15.05;;;9.13;;
8694;SDS011;65580;49.446;6.854;2023-05-08T18:32:39;26.35;;;13.85;;
8694;SDS011;65580;49.446;6.854;2023-05-08T18:36:46;27.90;;;14.32;;
8694;SDS011;65580;49.446;6.854;2023-05-08T18:40:50;32.65;;;14.77;;
8694;SDS011;65580;49.446;6.854;2023-05-08T18:44:53;37.17;;;15.10;;
8694;SDS011;65580;49.446;6.854;2023-05-08T18:49:03;20.73;;;11.50;;
8694;SDS011;65580;49.446;6.854;2023-05-08T18:53:07;14.48;;;8.43;;
8694;SDS011;65580;49.446;6.854;2023-05-08T18:57:10;17.45;;;10.63;;
8694;SDS011;65580;49.446;6.854;2023-05-08T19:01:22;25.80;;;12.73;;
8694;SDS011;65580;49.446;6.854;2023-05-08T19:05:30;22.13;;;10.40;;
8694;SDS011;65580;49.446;6.854;2023-05-08T19:09:34;14.88;;;9.73;;
8694;SDS011;65580;49.446;6.854;2023-05-08T19:13:37;16.05;;;9.68;;
8694;SDS011;65580;49.446;6.854;2023-05-08T19:17:40;28.17;;;13.43;;
8694;SDS011;65580;49.446;6.854;2023-05-08T19:21:43;43.42;;;17.13;;
8694;SDS011;65580;49.446;6.854;2023-05-08T19:25:55;20.60;;;12.15;;
8694;SDS011;65580;49.446;6.854;2023-05-08T19:29:58;16.25;;;9.68;;
8694;SDS011;65580;49.446;6.854;2023-05-08T19:34:05;29.52;;;9.55;;
8694;SDS011;65580;49.446;6.854;2023-05-08T19:38:08;78.57;;;22.10;;
8694;SDS011;65580;49.446;6.854;2023-05-08T19:42:17;22.98;;;12.93;;
8694;SDS011;65580;49.446;6.854;2023-05-08T19:46:22;15.52;;;9.93;;
8694;SDS011;65580;49.446;6.854;2023-05-08T19:50:30;20.13;;;10.15;;
8694;SDS011;65580;49.446;6.854;2023-05-08T19:54:44;45.63;;;16.40;;
8694;SDS011;65580;49.446;6.854;2023-05-08T19:58:57;29.23;;;15.02;;
8694;SDS011;65580;49.446;6.854;2023-05-08T20:03:00;28.10;;;10.25;;
8694;SDS011;65580;49.446;6.854;2023-05-08T20:07:03;17.10;;;10.30;;
8694;SDS011;65580;49.446;6.854;2023-05-08T20:15:30;29.00;;;10.13;;
8694;SDS011;65580;49.446;6.854;2023-05-08T20:19:35;24.40;;;10.75;;
8694;SDS011;65580;49.446;6.854;2023-05-08T20:23:37;42.17;;;15.98;;
8694;SDS011;65580;49.446;6.854;2023-05-08T20:27:41;30.38;;;13.90;;
8694;SDS011;65580;49.446;6.854;2023-05-08T20:31:57;14.75;;;9.27;;
8694;SDS011;65580;49.446;6.854;2023-05-08T20:36:00;42.28;;;17.10;;
8694;SDS011;65580;49.446;6.854;2023-05-08T20:40:03;43.75;;;17.05;;
8694;SDS011;65580;49.446;6.854;2023-05-08T20:44:07;22.23;;;12.25;;
8694;SDS011;65580;49.446;6.854;2023-05-08T20:48:13;18.77;;;10.02;;
8694;SDS011;65580;49.446;6.854;2023-05-08T20:52:15;26.80;;;14.60;;
8694;SDS011;65580;49.446;6.854;2023-05-08T20:56:18;14.63;;;10.00;;
8694;SDS011;65580;49.446;6.854;2023-05-08T21:00:22;18.20;;;11.27;;
8694;SDS011;65580;49.446;6.854;2023-05-08T21:04:26;153.43;;;16.73;;
8694;SDS011;65580;49.446;6.854;2023-05-08T21:12:36;47.70;;;16.20;;
8694;SDS011;65580;49.446;6.854;2023-05-08T21:20:43;15.85;;;10.15;;
8694;SDS011;65580;49.446;6.854;2023-05-08T21:24:50;20.17;;;11.40;;
8694;SDS011;65580;49.446;6.854;2023-05-08T21:33:19;17.00;;;10.15;;
8694;SDS011;65580;49.446;6.854;2023-05-08T21:37:23;95.43;;;19.50;;
8694;SDS011;65580;49.446;6.854;2023-05-08T21:41:26;14.40;;;9.05;;
8694;SDS011;65580;49.446;6.854;2023-05-08T21:45:29;24.85;;;10.38;;
8694;SDS011;65580;49.446;6.854;2023-05-08T21:49:32;18.83;;;11.13;;
8694;SDS011;65580;49.446;6.854;2023-05-08T21:53:36;21.30;;;10.90;;
8694;SDS011;65580;49.446;6.854;2023-05-08T21:57:39;16.63;;;10.27;;
8694;SDS011;65580;49.446;6.854;2023-05-08T22:01:44;36.50;;;13.30;;
8694;SDS011;65580;49.446;6.854;2023-05-08T22:05:47;24.05;;;12.95;;
8694;SDS011;65580;49.446;6.854;2023-05-08T22:09:51;20.60;;;11.05;;
8694;SDS011;65580;49.446;6.854;2023-05-08T22:13:54;69.38;;;17.80;;
8694;SDS011;65580;49.446;6.854;2023-05-08T22:17:57;32.65;;;14.73;;
8694;SDS011;65580;49.446;6.854;2023-05-08T22:22:00;49.00;;;14.77;;
8694;SDS011;65580;49.446;6.854;2023-05-08T22:26:05;14.23;;;9.75;;
8694;SDS011;65580;49.446;6.854;2023-05-08T22:30:08;15.45;;;9.35;;
8694;SDS011;65580;49.446;6.854;2023-05-08T22:34:11;16.08;;;9.70;;
8694;SDS011;65580;49.446;6.854;2023-05-08T22:38:14;15.82;;;9.07;;
8694;SDS011;65580;49.446;6.854;2023-05-08T22:42:18;31.63;;;11.05;;
8694;SDS011;65580;49.446;6.854;2023-05-08T22:46:21;31.15;;;9.38;;
8694;SDS011;65580;49.446;6.854;2023-05-08T22:54:27;23.83;;;11.13;;
8694;SDS011;65580;49.446;6.854;2023-05-08T22:58:31;26.15;;;10.88;;
8694;SDS011;65580;49.446;6.854;2023-05-08T23:07:12;362.20;;;33.15;;
8694;SDS011;65580;49.446;6.854;2023-05-08T23:11:14;40.20;;;18.20;;
8694;SDS011;65580;49.446;6.854;2023-05-08T23:15:19;18.55;;;11.68;;
8694;SDS011;65580;49.446;6.854;2023-05-08T23:19:22;50.63;;;17.75;;
8694;SDS011;65580;49.446;6.854;2023-05-08T23:23:25;20.48;;;10.93;;
8694;SDS011;65580;49.446;6.854;2023-05-08T23:27:27;37.72;;;16.10;;
8694;SDS011;65580;49.446;6.854;2023-05-08T23:35:49;26.77;;;13.10;;
8694;SDS011;65580;49.446;6.854;2023-05-08T23:43:55;19.48;;;10.27;;
8694;SDS011;65580;49.446;6.854;2023-05-08T23:47:59;15.30;;;9.10;;
8694;SDS011;65580;49.446;6.854;2023-05-08T23:52:02;15.38;;;9.13;;
8694;SDS011;65580;49.446;6.854;2023-05-08T23:56:05;14.50;;;9.38;;
